Track Степанов Александр

Time Latitude Longitude Accuracy (66% radius in meters) Altitude (meters) Speed (km/hour) Bearing (degrees) Battery (%) GPS flag
06:36:49 57.203872 60.118339 0 0 0 0 1 delete
06:36:47 57.203882 60.118287 0 0 0 0 1 delete
06:36:44 57.203906 60.118234 0 0 0 0 1 delete
06:36:40 57.203934 60.118205 0 0 0 0 1 delete
06:36:38 57.203956 60.118164 0 0 0 0 1 delete
06:36:34 57.203992 60.118119 0 0 0 0 1 delete
06:36:32 57.204019 60.118110 0 0 0 0 1 delete
06:36:31 57.204043 60.118065 0 0 0 0 1 delete
06:36:30 57.204061 60.118014 0 0 0 0 1 delete
06:36:29 57.204095 60.117986 0 0 0 0 1 delete
06:36:28 57.204120 60.117949 0 0 0 0 1 delete
06:36:27 57.204144 60.117901 0 0 0 0 1 delete
06:36:26 57.204180 60.117883 0 0 0 0 1 delete
06:36:25 57.204206 60.117834 0 0 0 0 1 delete
06:36:24 57.204234 60.117791 0 0 0 0 1 delete
06:36:23 57.204260 60.117757 0 0 0 0 1 delete
06:36:22 57.204291 60.117723 0 0 0 0 1 delete
06:36:21 57.204312 60.117677 0 0 0 0 1 delete
06:36:20 57.204349 60.117657 0 0 0 0 1 delete
06:36:19 57.204382 60.117616 0 0 0 0 1 delete
06:36:18 57.204421 60.117584 0 0 0 0 1 delete
06:36:17 57.204457 60.117546 0 0 0 0 1 delete
06:36:16 57.204496 60.117509 0 0 0 0 1 delete
06:36:15 57.204525 60.117477 0 0 0 0 1 delete
06:36:14 57.204566 60.117450 0 0 0 0 1 delete
06:36:13 57.204610 60.117437 0 0 0 0 1 delete
06:36:12 57.204649 60.117432 0 0 0 0 1 delete
06:36:11 57.204699 60.117429 0 0 0 0 1 delete
06:36:10 57.204742 60.117435 0 0 0 0 1 delete
06:36:09 57.204788 60.117452 0 0 0 0 1 delete
06:36:08 57.204823 60.117445 0 0 0 0 1 delete
06:36:07 57.204861 60.117455 0 0 0 0 1 delete
06:36:06 57.204893 60.117486 0 0 0 0 1 delete
06:36:05 57.204931 60.117491 0 0 0 0 1 delete
06:36:04 57.204967 60.117505 0 0 0 0 1 delete
06:36:03 57.204998 60.117506 0 0 0 0 1 delete
06:36:02 57.205026 60.117496 0 0 0 0 1 delete
06:36:01 57.205060 60.117512 0 0 0 0 1 delete
06:36:00 57.205091 60.117522 0 0 0 0 1 delete
06:35:59 57.205116 60.117545 0 0 0 0 1 delete
06:35:53 57.205154 60.117565 0 0 0 0 1 delete
06:35:51 57.205167 60.117493 0 0 0 0 1 delete
06:35:49 57.205168 60.117421 0 0 0 0 1 delete
06:35:47 57.205181 60.117371 0 0 0 0 1 delete
06:35:44 57.205181 60.117281 0 0 0 0 1 delete
06:35:42 57.205164 60.117208 0 0 0 0 1 delete
06:35:40 57.205163 60.117151 0 0 0 0 1 delete
06:35:38 57.205154 60.117089 0 0 0 0 1 delete
06:35:36 57.205159 60.117029 0 0 0 0 1 delete
06:35:33 57.205164 60.116950 0 0 0 0 1 delete